createdAt,value
2022-11-04T00:02:15.373Z,97920.97
2022-11-04T00:04:42.332Z,97924.25
2022-11-04T00:07:29.152Z,97920.56
2022-11-04T00:09:56.128Z,97917.63
2022-11-04T00:12:25.993Z,97919.28
2022-11-04T00:14:53.227Z,97812.25
2022-11-04T00:17:20.367Z,97900.63
2022-11-04T00:20:07.575Z,97908.28
2022-11-04T00:22:54.202Z,97901.84
2022-11-04T00:28:32.626Z,97897.09
2022-11-04T00:31:21.259Z,97900.59
2022-11-04T00:33:49.395Z,97897.06
2022-11-04T00:36:16.639Z,97849.66
2022-11-04T00:38:43.712Z,97872.31
2022-11-04T00:41:26.757Z,97888.13
2022-11-04T00:44:01.430Z,97881.47
2022-11-04T00:46:30.991Z,97872.34
2022-11-04T00:48:58.309Z,97885.06
2022-11-04T00:51:25.511Z,97879.06
2022-11-04T00:53:52.786Z,97871.63
2022-11-04T00:56:19.771Z,97877.63
2022-11-04T00:58:46.681Z,97871.41
2022-11-04T01:01:19.082Z,97860.81
2022-11-04T01:03:51.704Z,97866.00
2022-11-04T01:06:20.246Z,97856.44
2022-11-04T01:08:48.279Z,97854.78
2022-11-04T01:11:16.217Z,97821.00
2022-11-04T01:13:43.157Z,97848.75
2022-11-04T01:16:11.721Z,97842.16
2022-11-04T01:18:40.220Z,97850.03
2022-11-04T01:21:09.134Z,97846.31
2022-11-04T01:23:36.519Z,97805.25
2022-11-04T01:26:07.813Z,97842.53
2022-11-04T01:28:34.750Z,97844.84
2022-11-04T01:31:10.458Z,97802.13
2022-11-04T01:33:38.277Z,97828.22
2022-11-04T01:36:06.868Z,97822.63
2022-11-04T01:38:34.099Z,97813.28
2022-11-04T01:41:01.367Z,97820.34
2022-11-04T01:43:46.265Z,97814.50
2022-11-04T01:46:33.331Z,97808.91
2022-11-04T01:49:10.309Z,97804.34
2022-11-04T01:51:40.885Z,97787.34
2022-11-04T01:54:10.466Z,97804.34
2022-11-04T01:56:39.070Z,97798.97
2022-11-04T01:59:14.061Z,97789.41
2022-11-04T02:01:41.087Z,97785.69
2022-11-04T02:04:28.185Z,97792.09
2022-11-04T02:07:19.895Z,97739.50
2022-11-04T02:10:20.901Z,97732.22
2022-11-04T02:13:08.588Z,97768.63
2022-11-04T02:16:17.587Z,97764.28
2022-11-04T02:19:10.059Z,97760.53
2022-11-04T02:22:14.958Z,97763.22
2022-11-04T02:25:23.828Z,97760.94
2022-11-04T02:27:53.546Z,97757.44
2022-11-04T02:30:22.039Z,97752.84
2022-11-04T02:33:10.735Z,97735.22
2022-11-04T02:35:41.859Z,97744.97
2022-11-04T02:38:16.731Z,97746.19
2022-11-04T02:40:57.442Z,97749.72
2022-11-04T02:44:09.896Z,97740.22
2022-11-04T02:47:16.872Z,97735.44
2022-11-04T02:50:01.426Z,97735.59
2022-11-04T02:52:33.239Z,97721.97
2022-11-04T02:55:10.014Z,97720.50
2022-11-04T02:57:40.557Z,97725.25
2022-11-04T03:00:13.605Z,97715.69
2022-11-04T03:02:54.500Z,97707.22
2022-11-04T03:05:27.842Z,97705.13
2022-11-04T03:07:58.225Z,97719.00
2022-11-04T03:10:38.817Z,97712.59
2022-11-04T03:13:15.108Z,97702.59
2022-11-04T03:15:50.837Z,97713.38
2022-11-04T03:18:25.075Z,97704.00
2022-11-04T03:20:53.328Z,97717.50
2022-11-04T03:23:20.438Z,97705.66
2022-11-04T03:25:50.414Z,97706.69
2022-11-04T03:28:51.057Z,97706.28
2022-11-04T03:31:28.545Z,97702.97
2022-11-04T03:33:57.844Z,97697.19
2022-11-04T03:36:25.032Z,97705.06
2022-11-04T03:38:53.726Z,97685.84
2022-11-04T03:41:33.588Z,97708.00
2022-11-04T03:44:00.577Z,97702.84
2022-11-04T03:46:27.947Z,97704.72
2022-11-04T03:48:56.223Z,97686.28
2022-11-04T03:51:23.375Z,97698.72
2022-11-04T03:53:50.528Z,97686.47
2022-11-04T03:56:35.605Z,97687.34
2022-11-04T03:59:25.518Z,97680.50
2022-11-04T04:02:47.911Z,97682.81
2022-11-04T04:05:24.011Z,97681.00
2022-11-04T04:08:08.346Z,97680.59
2022-11-04T04:11:03.529Z,97682.47
2022-11-04T04:13:53.947Z,97675.44
2022-11-04T04:16:34.865Z,97669.25
2022-11-04T04:19:15.476Z,97667.19
2022-11-04T04:21:59.324Z,97674.03
2022-11-04T04:24:52.671Z,97656.00
2022-11-04T04:27:32.007Z,97664.06
2022-11-04T04:30:08.292Z,97675.25
2022-11-04T04:32:44.896Z,97671.72
2022-11-04T04:35:31.008Z,97664.31
2022-11-04T04:38:21.657Z,97669.50
2022-11-04T04:41:18.410Z,97664.53
2022-11-04T04:44:04.358Z,97650.50
2022-11-04T04:46:32.734Z,97653.81
2022-11-04T04:49:07.126Z,97666.00
2022-11-04T04:51:36.856Z,97656.06
2022-11-04T04:54:03.917Z,97656.50
2022-11-04T04:56:30.839Z,97651.34
2022-11-04T04:58:57.801Z,97654.66
2022-11-04T05:01:24.833Z,97652.19
2022-11-04T05:03:51.854Z,97644.94
2022-11-04T05:06:18.754Z,97636.66
2022-11-04T05:08:45.776Z,97642.84
2022-11-04T05:11:13.533Z,97640.56
2022-11-04T05:13:40.616Z,97642.44
2022-11-04T05:16:10.736Z,97644.50
2022-11-04T05:18:37.712Z,97632.47
2022-11-04T05:21:06.704Z,97642.19
2022-11-04T05:23:34.950Z,97639.31
2022-11-04T05:26:02.289Z,97649.88
2022-11-04T05:28:29.432Z,97651.75
2022-11-04T05:30:56.776Z,97642.84
2022-11-04T05:33:23.726Z,97642.03
2022-11-04T05:35:50.633Z,97638.69
2022-11-04T05:38:17.670Z,97633.31
2022-11-04T05:40:44.622Z,97631.47
2022-11-04T05:43:12.159Z,97637.25
2022-11-04T05:45:39.116Z,97642.22
2022-11-04T05:48:06.402Z,97632.69
2022-11-04T05:50:34.757Z,97625.25
2022-11-04T05:53:02.081Z,97625.66
2022-11-04T05:55:29.161Z,97621.75
2022-11-04T05:57:58.159Z,97615.53
2022-11-04T06:00:27.391Z,97611.19
2022-11-04T06:02:57.490Z,97615.50
2022-11-04T06:05:25.661Z,97614.69
2022-11-04T06:07:52.583Z,97620.91
2022-11-04T06:10:19.507Z,97633.31
2022-11-04T06:12:46.482Z,97628.56
2022-11-04T06:15:13.523Z,97628.94
2022-11-04T06:17:40.442Z,97622.69
2022-11-04T06:20:08.018Z,97625.78
2022-11-04T06:22:34.888Z,97613.94
2022-11-04T06:25:01.781Z,97619.09
2022-11-04T06:27:29.693Z,97614.72
2022-11-04T06:29:56.909Z,97615.72
2022-11-04T06:32:23.754Z,97616.75
2022-11-04T06:34:50.831Z,97613.78
2022-11-04T06:37:17.709Z,97626.63
2022-11-04T06:39:45.744Z,97605.25
2022-11-04T06:42:12.584Z,97611.84
2022-11-04T06:44:39.632Z,97626.28
2022-11-04T06:47:07.507Z,97618.38
2022-11-04T06:49:34.773Z,97623.88
2022-11-04T06:52:02.833Z,97630.00
2022-11-04T06:54:29.747Z,97626.00
2022-11-04T06:56:56.835Z,97627.47
2022-11-04T06:59:24.276Z,97623.00
2022-11-04T07:01:52.390Z,97628.28
2022-11-04T07:04:19.735Z,97634.84
2022-11-04T07:06:46.804Z,97633.72
2022-11-04T07:09:16.343Z,97628.19
2022-11-04T07:11:44.737Z,97631.78
2022-11-04T07:14:12.485Z,97633.13
2022-11-04T07:16:39.498Z,97637.66
2022-11-04T07:19:06.983Z,97625.56
2022-11-04T07:21:33.877Z,97628.88
2022-11-04T07:24:02.091Z,97621.56
2022-11-04T07:26:29.264Z,97627.59
2022-11-04T07:28:56.329Z,97622.78
2022-11-04T07:31:23.970Z,97595.28
2022-11-04T07:33:51.683Z,97616.91
2022-11-04T07:36:19.506Z,97615.56
2022-11-04T07:38:46.947Z,97609.84
2022-11-04T07:41:15.324Z,97614.09
2022-11-04T07:43:42.247Z,97610.03
2022-11-04T07:46:12.118Z,97610.78
2022-11-04T07:48:39.380Z,97599.03
2022-11-04T07:51:08.749Z,97580.66
2022-11-04T07:53:36.179Z,97596.97
2022-11-04T07:56:08.059Z,97601.25
2022-11-04T07:58:35.367Z,97598.88
2022-11-04T08:01:08.007Z,97604.88
2022-11-04T08:03:35.620Z,97587.69
2022-11-04T08:06:04.956Z,97600.00
2022-11-04T08:08:32.490Z,97603.31
2022-11-04T08:11:02.377Z,97596.88
2022-11-04T08:13:34.659Z,97601.94
2022-11-04T08:16:07.192Z,97595.16
2022-11-04T08:18:34.452Z,97590.88
2022-11-04T08:21:02.806Z,97598.19
2022-11-04T08:23:30.297Z,97592.50
2022-11-04T08:25:57.711Z,97596.84
2022-11-04T08:28:25.549Z,97595.06
2022-11-04T08:31:07.574Z,97590.19
2022-11-04T08:33:36.422Z,97579.13
2022-11-04T08:36:09.870Z,97579.34
2022-11-04T08:38:37.313Z,97570.31
2022-11-04T08:41:06.773Z,97564.38
2022-11-04T08:43:35.189Z,97566.81
2022-11-04T08:46:04.718Z,97554.47
2022-11-04T08:48:31.809Z,97552.03
2022-11-04T08:50:59.815Z,97541.16
2022-11-04T08:53:26.803Z,97541.91
2022-11-04T08:55:54.204Z,97543.78
2022-11-04T08:58:23.243Z,97541.41
2022-11-04T09:00:50.249Z,97537.94
2022-11-04T09:03:18.221Z,97532.78
2022-11-04T09:05:47.490Z,97532.44
2022-11-04T09:08:17.012Z,97535.97
2022-11-04T09:10:45.884Z,97528.84
2022-11-04T09:13:13.795Z,97522.47
2022-11-04T09:15:40.895Z,97525.00
2022-11-04T09:18:08.116Z,97529.59
2022-11-04T09:20:38.661Z,97518.31
2022-11-04T09:23:06.721Z,97512.63
2022-11-04T09:25:34.220Z,97525.13
2022-11-04T09:28:01.171Z,97516.50
2022-11-04T09:30:28.409Z,97515.16
2022-11-04T09:32:55.252Z,97508.44
2022-11-04T09:35:22.162Z,97510.63
2022-11-04T09:37:50.739Z,97513.59
2022-11-04T09:40:20.897Z,97503.91
2022-11-04T09:43:15.501Z,97508.31
2022-11-04T09:45:44.226Z,97501.50
2022-11-04T09:48:28.717Z,97508.56
2022-11-04T09:50:59.365Z,97501.81
2022-11-04T09:53:48.256Z,97501.88
2022-11-04T09:56:22.582Z,97503.81
2022-11-04T09:58:51.535Z,97492.97
2022-11-04T10:01:18.518Z,97490.25
2022-11-04T10:04:05.746Z,97488.66
2022-11-04T10:06:54.457Z,97493.09
2022-11-04T10:09:24.168Z,97491.25
2022-11-04T10:12:16.279Z,97502.69
2022-11-04T10:14:54.540Z,97506.81
2022-11-04T10:17:42.325Z,97499.69
2022-11-04T10:20:24.214Z,97502.41
2022-11-04T10:23:19.028Z,97490.72
2022-11-04T10:25:50.151Z,97487.22
2022-11-04T10:28:19.951Z,97486.69
2022-11-04T10:30:52.444Z,97465.75
2022-11-04T10:33:22.095Z,97484.97
2022-11-04T10:35:54.116Z,97489.84
2022-11-04T10:38:44.678Z,97484.13
2022-11-04T10:41:38.925Z,97471.75
2022-11-04T10:44:22.666Z,97473.50
2022-11-04T10:47:02.588Z,97454.13
2022-11-04T10:50:06.717Z,97466.84
2022-11-04T10:52:36.385Z,97483.81
2022-11-04T10:55:03.413Z,97480.09
2022-11-04T10:57:31.156Z,97478.38
2022-11-04T11:00:03.962Z,97476.53
2022-11-04T11:02:36.913Z,97485.50
2022-11-04T11:05:18.763Z,97483.91
2022-11-04T11:07:47.657Z,97484.88
2022-11-04T11:10:21.935Z,97480.44
2022-11-04T11:12:57.082Z,97482.50
2022-11-04T11:16:04.146Z,97466.44
2022-11-04T11:18:31.035Z,97468.59
2022-11-04T11:21:11.018Z,97462.22
2022-11-04T11:23:47.667Z,97465.97
2022-11-04T11:26:29.591Z,97469.09
2022-11-04T11:29:02.372Z,97462.34
2022-11-04T11:31:38.297Z,97467.13
2022-11-04T11:34:19.177Z,97465.09
2022-11-04T11:36:48.320Z,97461.97
2022-11-04T11:39:19.653Z,97447.25
2022-11-04T11:42:06.692Z,97455.31
2022-11-04T11:44:38.766Z,97454.81
2022-11-04T11:47:18.619Z,97446.31
2022-11-04T11:49:45.727Z,97445.13
2022-11-04T11:52:30.745Z,97438.31
2022-11-04T11:55:16.816Z,97438.53
2022-11-04T12:01:23.993Z,97430.66
2022-11-04T12:10:48.617Z,97423.31
2022-11-04T12:13:37.227Z,97417.25
2022-11-04T12:16:29.995Z,97420.00
2022-11-04T12:19:10.193Z,97410.63
2022-11-04T12:22:09.342Z,97414.00
2022-11-04T12:24:36.261Z,97429.25
2022-11-04T12:27:07.917Z,97421.88
2022-11-04T12:30:02.549Z,97424.63
2022-11-04T12:32:47.942Z,97415.88
2022-11-04T12:35:47.683Z,97413.06
2022-11-04T12:38:41.994Z,97412.50
2022-11-04T12:41:37.896Z,97420.75
2022-11-04T12:44:28.885Z,97423.75
2022-11-04T12:47:07.418Z,97422.09
2022-11-04T12:50:17.328Z,97420.66
2022-11-04T12:53:49.008Z,97413.34
2022-11-04T12:56:20.923Z,97421.44
2022-11-04T12:59:22.190Z,97404.84
2022-11-04T13:01:56.843Z,97396.19
2022-11-04T13:04:59.163Z,97390.25
2022-11-04T13:07:40.379Z,97406.44
2022-11-04T13:10:23.298Z,97410.50
2022-11-04T13:12:55.722Z,97393.75
2022-11-04T13:15:29.244Z,97403.09
2022-11-04T13:18:05.407Z,97398.78
2022-11-04T13:20:43.597Z,97400.88
2022-11-04T13:23:19.150Z,97406.53
2022-11-04T13:25:48.378Z,97378.34
2022-11-04T13:28:21.736Z,97399.91
2022-11-04T13:31:03.808Z,97403.72
2022-11-04T13:33:56.904Z,97362.28
2022-11-04T13:36:42.040Z,97405.00
2022-11-04T13:39:50.766Z,97402.69
2022-11-04T13:42:42.719Z,97403.03
2022-11-04T13:45:15.215Z,97400.28
2022-11-04T13:47:55.832Z,97409.78
2022-11-04T13:50:34.268Z,97404.53
2022-11-04T13:53:02.349Z,97416.34
2022-11-04T13:55:29.585Z,97413.41
2022-11-04T13:58:02.676Z,97427.28
2022-11-04T14:00:31.759Z,97430.16
2022-11-04T14:03:00.486Z,97429.44
2022-11-04T14:05:31.327Z,97418.00
2022-11-04T14:08:01.327Z,97418.25
2022-11-04T14:10:50.107Z,97415.78
2022-11-04T14:13:32.810Z,97406.56
2022-11-04T14:16:18.117Z,97420.81
2022-11-04T14:18:47.541Z,97397.03
2022-11-04T14:21:25.963Z,97403.28
2022-11-04T14:23:56.774Z,97405.41
2022-11-04T14:26:47.710Z,97411.53
2022-11-04T14:29:25.481Z,97409.09
2022-11-04T14:31:55.070Z,97417.28
2022-11-04T14:34:31.119Z,97383.91
2022-11-04T14:37:21.874Z,97415.31
2022-11-04T14:39:57.018Z,97418.41
2022-11-04T14:42:52.766Z,97409.38
2022-11-04T14:45:40.132Z,97415.88
2022-11-04T14:48:18.519Z,97422.63
2022-11-04T14:50:49.277Z,97428.97
2022-11-04T14:53:34.373Z,97430.03
2022-11-04T14:56:06.314Z,97406.19
2022-11-04T14:58:33.257Z,97428.97
2022-11-04T15:01:02.780Z,97428.16
2022-11-04T15:06:40.773Z,97421.25
2022-11-04T15:09:23.425Z,97414.09
2022-11-04T15:12:09.044Z,97410.16
2022-11-04T15:14:37.943Z,97413.03
2022-11-04T15:17:04.881Z,97416.31
2022-11-04T15:19:36.249Z,97409.84
2022-11-04T15:22:06.266Z,97405.22
2022-11-04T15:24:35.421Z,97412.19
2022-11-04T15:27:06.741Z,97404.66
2022-11-04T15:29:33.761Z,97401.59
2022-11-04T15:32:05.100Z,97410.06
2022-11-04T15:34:33.985Z,97414.91
2022-11-04T15:37:06.147Z,97405.34
2022-11-04T15:39:43.681Z,97400.59
2022-11-04T15:42:40.799Z,97389.31
2022-11-04T15:45:22.879Z,97386.59
2022-11-04T15:48:25.105Z,97378.69
2022-11-04T15:51:13.794Z,97381.50
2022-11-04T15:53:53.679Z,97374.91
2022-11-04T15:56:32.205Z,97382.97
2022-11-04T15:59:00.691Z,97378.28
2022-11-04T16:01:29.431Z,97373.91
2022-11-04T16:03:59.510Z,97369.00
2022-11-04T16:06:42.618Z,97351.16
2022-11-04T16:09:27.473Z,97330.31
2022-11-04T16:12:13.832Z,97355.09
2022-11-04T16:14:55.154Z,97364.09
2022-11-04T16:17:23.615Z,97369.63
2022-11-04T16:20:01.819Z,97377.75
2022-11-04T16:22:32.697Z,97361.91
2022-11-04T16:25:03.258Z,97358.69
2022-11-04T16:27:33.674Z,97367.31
2022-11-04T16:30:18.741Z,97369.06
2022-11-04T16:32:51.210Z,97349.22
2022-11-04T16:35:26.665Z,97362.03
2022-11-04T16:37:56.157Z,97367.22
2022-11-04T16:40:24.603Z,97360.56
2022-11-04T16:42:53.059Z,97361.28
2022-11-04T16:45:30.571Z,97369.41
2022-11-04T16:47:57.757Z,97369.19
2022-11-04T16:50:25.409Z,97368.69
2022-11-04T16:52:52.833Z,97376.31
2022-11-04T16:55:22.785Z,97363.03
2022-11-04T16:58:00.429Z,97379.19
2022-11-04T17:00:28.732Z,97375.44
2022-11-04T17:02:55.785Z,97370.72
2022-11-04T17:05:22.982Z,97372.84
2022-11-04T17:07:56.467Z,97376.97
2022-11-04T17:10:27.116Z,97376.16
2022-11-04T17:12:54.374Z,97374.41
2022-11-04T17:15:21.794Z,97378.75
2022-11-04T17:17:48.726Z,97367.09
2022-11-04T17:20:18.134Z,97367.66
2022-11-04T17:22:47.205Z,97368.25
2022-11-04T17:25:22.704Z,97371.19
2022-11-04T17:27:49.833Z,97380.66
2022-11-04T17:30:18.400Z,97376.28
2022-11-04T17:32:46.234Z,97354.78
2022-11-04T17:35:14.241Z,97364.44
2022-11-04T17:37:41.208Z,97370.91
2022-11-04T17:40:17.732Z,97374.25
2022-11-04T17:43:08.342Z,97373.31
2022-11-04T17:45:38.308Z,97358.13
2022-11-04T17:48:06.007Z,97363.59
2022-11-04T17:50:33.948Z,97373.69
2022-11-04T17:53:00.819Z,97373.69
2022-11-04T17:55:28.005Z,97368.28
2022-11-04T17:57:55.662Z,97363.25
2022-11-04T18:00:26.081Z,97357.56
2022-11-04T18:02:53.061Z,97358.88
2022-11-04T18:05:20.532Z,97352.69
2022-11-04T18:07:47.453Z,97353.81
2022-11-04T18:10:14.318Z,97351.59
2022-11-04T18:12:41.840Z,97340.53
2022-11-04T18:15:12.111Z,97341.03
2022-11-04T18:17:43.237Z,97346.31
2022-11-04T18:20:15.572Z,97341.16
2022-11-04T18:22:43.441Z,97351.84
2022-11-04T18:25:11.660Z,97319.63
2022-11-04T18:27:38.887Z,97350.22
2022-11-04T18:30:06.529Z,97338.09
2022-11-04T18:32:33.792Z,97338.69
2022-11-04T18:35:01.197Z,97338.91
2022-11-04T18:37:31.736Z,97344.09
2022-11-04T18:39:59.877Z,97337.59
2022-11-04T18:42:28.760Z,97339.16
2022-11-04T18:44:55.879Z,97338.13
2022-11-04T18:47:23.993Z,97338.00
2022-11-04T18:49:51.077Z,97333.53
2022-11-04T18:52:18.357Z,97339.66
2022-11-04T18:54:45.687Z,97341.28
2022-11-04T18:57:13.174Z,97341.06
2022-11-04T18:59:41.472Z,97349.53
2022-11-04T19:02:23.749Z,97355.28
2022-11-04T19:04:51.845Z,97361.53
2022-11-04T19:07:19.180Z,97302.38
2022-11-04T19:09:47.804Z,97363.16
2022-11-04T19:12:34.287Z,97369.38
2022-11-04T19:15:01.246Z,97371.41
2022-11-04T19:17:28.158Z,97371.63
2022-11-04T19:19:55.572Z,97378.81
2022-11-04T19:22:23.031Z,97371.88
2022-11-04T19:24:50.117Z,97381.16
2022-11-04T19:27:19.737Z,97379.63
2022-11-04T19:29:47.083Z,97375.28
2022-11-04T19:32:14.737Z,97357.50
2022-11-04T19:34:43.444Z,97386.09
2022-11-04T19:37:11.314Z,97385.06
2022-11-04T19:39:38.771Z,97397.53
2022-11-04T19:42:24.907Z,97398.34
2022-11-04T19:44:51.893Z,97387.97
2022-11-04T19:47:18.873Z,97383.06
2022-11-04T19:49:45.987Z,97390.22
2022-11-04T19:52:12.904Z,97388.00
2022-11-04T19:54:40.273Z,97391.53
2022-11-04T19:57:07.322Z,97396.13
2022-11-04T19:59:34.294Z,97386.09
2022-11-04T20:02:01.352Z,97377.28
2022-11-04T20:04:28.482Z,97396.34
2022-11-04T20:06:55.711Z,97404.00
2022-11-04T20:09:22.762Z,97401.41
2022-11-04T20:12:08.269Z,97409.03
2022-11-04T20:14:35.334Z,97421.53
2022-11-04T20:17:03.073Z,97407.28
2022-11-04T20:19:30.095Z,97409.88
2022-11-04T20:21:57.005Z,97414.34
2022-11-04T20:24:25.543Z,97412.81
2022-11-04T20:26:53.186Z,97399.19
2022-11-04T20:29:20.331Z,97430.00
2022-11-04T20:31:47.310Z,97428.13
2022-11-04T20:34:15.101Z,97446.00
2022-11-04T20:36:42.890Z,97444.94
2022-11-04T20:39:15.327Z,97442.25
2022-11-04T20:41:43.853Z,97436.84
2022-11-04T20:44:12.634Z,97445.78
2022-11-04T20:46:40.197Z,97441.06
2022-11-04T20:49:07.674Z,97445.19
2022-11-04T20:51:38.928Z,97451.91
2022-11-04T20:54:07.340Z,97468.94
2022-11-04T20:56:36.452Z,97475.44
2022-11-04T20:59:04.578Z,97462.59
2022-11-04T21:01:34.143Z,97468.22
2022-11-04T21:04:03.841Z,97474.25
2022-11-04T21:06:31.956Z,97472.81
2022-11-04T21:09:01.016Z,97470.34
2022-11-04T21:11:31.801Z,97476.00
2022-11-04T21:13:59.745Z,97473.97
2022-11-04T21:16:26.848Z,97469.63
2022-11-04T21:18:54.943Z,97481.88
2022-11-04T21:21:21.890Z,97477.66
2022-11-04T21:23:49.541Z,97486.34
2022-11-04T21:26:21.705Z,97490.22
2022-11-04T21:28:53.140Z,97492.94
2022-11-04T21:31:20.076Z,97490.84
2022-11-04T21:33:47.557Z,97508.94
2022-11-04T21:36:15.447Z,97505.75
2022-11-04T21:38:43.084Z,97509.31
2022-11-04T21:41:16.585Z,97505.75
2022-11-04T21:43:43.786Z,97508.47
2022-11-04T21:46:13.868Z,97512.22
2022-11-04T21:48:42.382Z,97505.75
2022-11-04T21:51:11.279Z,97494.94
2022-11-04T21:53:38.657Z,97492.44
2022-11-04T21:56:15.478Z,97501.53
2022-11-04T21:58:43.649Z,97459.94
2022-11-04T22:01:15.372Z,97500.91
2022-11-04T22:03:43.338Z,97498.81
2022-11-04T22:06:14.158Z,97494.09
2022-11-04T22:08:48.584Z,97495.41
2022-11-04T22:11:18.715Z,97502.22
2022-11-04T22:13:46.489Z,97501.53
2022-11-04T22:16:18.854Z,97479.47
2022-11-04T22:18:46.752Z,97501.06
2022-11-04T22:21:16.020Z,97514.22
2022-11-04T22:23:44.469Z,97503.38
2022-11-04T22:26:18.431Z,97509.16
2022-11-04T22:28:45.766Z,97502.44
2022-11-04T22:31:21.380Z,97503.28
2022-11-04T22:33:49.605Z,97506.94
2022-11-04T22:36:17.494Z,97447.78
2022-11-04T22:38:44.491Z,97481.94
2022-11-04T22:41:14.276Z,97493.75
2022-11-04T22:43:41.268Z,97489.53
2022-11-04T22:46:35.441Z,97481.97
2022-11-04T22:49:02.309Z,97480.72
2022-11-04T22:51:31.547Z,97477.66
2022-11-04T22:54:03.109Z,97476.00
2022-11-04T22:56:33.911Z,97481.19
2022-11-04T22:59:01.708Z,97455.63
2022-11-04T23:01:28.984Z,97485.50
2022-11-04T23:03:55.975Z,97480.34
2022-11-04T23:06:23.146Z,97481.19
2022-11-04T23:08:52.133Z,97488.00
2022-11-04T23:11:44.591Z,97491.19
2022-11-04T23:14:32.920Z,97479.63
2022-11-04T23:17:19.021Z,97500.69
2022-11-04T23:19:46.015Z,97500.47
2022-11-04T23:22:31.445Z,97503.19
2022-11-04T23:25:07.292Z,97499.03
2022-11-04T23:28:07.102Z,97508.59
2022-11-04T23:30:42.138Z,97508.25
2022-11-04T23:33:11.839Z,97503.41
2022-11-04T23:36:00.367Z,97507.75
2022-11-04T23:38:29.650Z,97512.34
2022-11-04T23:41:18.289Z,97515.63
2022-11-04T23:43:45.474Z,97519.16
2022-11-04T23:46:31.407Z,97517.34
2022-11-04T23:49:07.409Z,97519.63
2022-11-04T23:51:53.079Z,97508.06
2022-11-04T23:54:38.598Z,97523.72
2022-11-04T23:57:30.357Z,97540.78
